Time;durP1;ratioP1;P1;durP2;ratioP2;P2;SDS_P1;SDS_P2;PMS_P1;PMS_P2;Temp;Humidity;BMP_temperature;BMP_pressure;BME280_temperature;BME280_humidity;BME280_pressure;Samples;Min_cycle;Max_cycle;Signal;HPM_P1;HPM_P2
2024/03/22 00:02:10;;;;;;;5.38;1.40;;;32.20;38.20;;;;;;5108498;27;20583;-56
2024/03/22 00:04:37;;;;;;;9.98;1.50;;;32.00;38.10;;;;;;5116670;27;20068;-57
2024/03/22 00:07:04;;;;;;;10.65;1.40;;;32.00;38.40;;;;;;5120054;27;20071;-55
2024/03/22 00:09:30;;;;;;;9.85;1.70;;;32.00;38.30;;;;;;5115756;27;20068;-59
2024/03/22 00:11:57;;;;;;;5.53;1.30;;;31.90;38.70;;;;;;5107480;27;20063;-55
2024/03/22 00:14:23;;;;;;;6.70;1.65;;;31.90;38.50;;;;;;5115773;27;20467;-55
2024/03/22 00:16:50;;;;;;;9.48;1.90;;;31.90;38.70;;;;;;5125507;27;20158;-59
2024/03/22 00:19:17;;;;;;;9.63;1.50;;;31.60;38.50;;;;;;5126374;27;20096;-58
2024/03/22 00:21:43;;;;;;;6.32;1.27;;;31.40;38.60;;;;;;5112930;27;20140;-58
2024/03/22 00:24:10;;;;;;;12.32;2.03;;;31.30;39.10;;;;;;5112094;27;20129;-57
2024/03/22 00:26:36;;;;;;;17.35;2.05;;;31.30;39.40;;;;;;5111143;27;20072;-58
2024/03/22 00:29:03;;;;;;;4.68;1.50;;;31.30;39.10;;;;;;5112942;27;20099;-56
2024/03/22 00:31:29;;;;;;;11.00;1.30;;;31.10;39.40;;;;;;5107675;27;20076;-57
2024/03/22 00:33:58;;;;;;;9.43;1.50;;;30.90;39.40;;;;;;5103845;28;20095;-59
2024/03/22 00:36:25;;;;;;;15.77;2.20;;;30.60;40.10;;;;;;5108641;27;20064;-55
2024/03/22 00:38:51;;;;;;;10.75;2.13;;;30.60;40.50;;;;;;5115798;27;20103;-57
2024/03/22 00:41:17;;;;;;;14.05;1.85;;;30.60;41.10;;;;;;5108256;28;20072;-55
2024/03/22 00:43:44;;;;;;;13.07;1.98;;;30.40;41.10;;;;;;5113375;27;20072;-57
2024/03/22 00:46:10;;;;;;;8.48;1.35;;;30.30;41.60;;;;;;5110255;28;20482;-57
2024/03/22 00:48:37;;;;;;;10.25;1.77;;;30.30;41.50;;;;;;5106315;28;20076;-55
2024/03/22 00:51:04;;;;;;;8.30;1.55;;;30.20;40.50;;;;;;5105184;27;20502;-53
2024/03/22 00:53:30;;;;;;;18.00;13.38;;;30.00;40.40;;;;;;5105988;28;20537;-56
2024/03/22 00:55:59;;;;;;;14.07;8.98;;;29.90;40.60;;;;;;5104026;28;20589;-52
2024/03/22 00:58:27;;;;;;;13.75;10.10;;;29.80;40.80;;;;;;5102867;28;20106;-52
2024/03/22 01:00:54;;;;;;;19.17;14.60;;;29.70;42.20;;;;;;5110348;28;20073;-50
2024/03/22 01:03:21;;;;;;;18.92;14.68;;;29.60;41.80;;;;;;5113260;28;20081;-50
2024/03/22 01:05:47;;;;;;;22.23;2.28;;;29.50;42.10;;;;;;5103895;27;20079;-53
2024/03/22 01:08:14;;;;;;;22.08;6.22;;;29.40;42.40;;;;;;5103409;28;20069;-53
2024/03/22 01:10:41;;;;;;;29.08;12.90;;;29.30;42.70;;;;;;5106609;28;20068;-51
2024/03/22 01:13:08;;;;;;;13.45;1.92;;;29.10;42.50;;;;;;5105204;27;20077;-54
2024/03/22 01:15:35;;;;;;;16.88;2.60;;;29.10;42.60;;;;;;5106125;28;20415;-54
2024/03/22 01:18:02;;;;;;;14.25;2.70;;;29.00;42.80;;;;;;5105725;28;20103;-53
2024/03/22 01:20:28;;;;;;;25.20;2.65;;;29.00;42.10;;;;;;5113814;28;20548;-57
2024/03/22 01:22:54;;;;;;;11.65;2.60;;;28.90;42.00;;;;;;5113520;28;20132;-51
2024/03/22 01:25:21;;;;;;;15.75;2.90;;;28.80;41.70;;;;;;5108621;28;20075;-54
2024/03/22 01:27:47;;;;;;;9.27;2.80;;;28.70;41.60;;;;;;5106854;28;20079;-54
2024/03/22 01:30:14;;;;;;;13.05;2.40;;;28.60;41.50;;;;;;5118571;27;20119;-55
2024/03/22 01:32:40;;;;;;;15.25;2.50;;;28.50;41.40;;;;;;5110856;28;20151;-54
2024/03/22 01:35:08;;;;;;;13.95;4.30;;;28.50;41.60;;;;;;5118541;28;20147;-56
2024/03/22 01:37:34;;;;;;;18.38;4.55;;;28.40;41.20;;;;;;5110392;28;20071;-55
2024/03/22 01:40:01;;;;;;;35.78;5.28;;;28.30;41.50;;;;;;5111287;27;20116;-54
2024/03/22 01:42:27;;;;;;;18.98;5.10;;;28.20;41.50;;;;;;5116075;27;20072;-55
2024/03/22 01:44:54;;;;;;;29.15;5.43;;;28.10;41.60;;;;;;5111929;27;20106;-56
2024/03/22 01:47:20;;;;;;;18.10;5.63;;;28.10;42.00;;;;;;5129556;27;20072;-59
2024/03/22 01:49:49;;;;;;;29.88;5.95;;;28.00;42.00;;;;;;5122815;27;20104;-58
2024/03/22 01:52:16;;;;;;;28.15;6.57;;;27.90;42.10;;;;;;5130881;27;20386;-57
2024/03/22 01:54:42;;;;;;;24.23;6.65;;;27.80;42.40;;;;;;5116009;27;20127;-52
2024/03/22 01:57:10;;;;;;;26.65;7.55;;;27.70;42.50;;;;;;5101975;28;20578;-53
2024/03/22 01:59:36;;;;;;;33.70;7.60;;;27.60;42.60;;;;;;5113503;28;20103;-54
2024/03/22 02:02:03;;;;;;;30.52;6.82;;;27.60;42.70;;;;;;5115881;27;20070;-55
2024/03/22 02:04:29;;;;;;;16.38;4.15;;;27.50;42.80;;;;;;5109470;27;20159;-55
2024/03/22 02:06:56;;;;;;;25.00;5.68;;;27.40;43.10;;;;;;5107783;27;20167;-54
2024/03/22 02:09:22;;;;;;;33.22;4.80;;;27.30;43.20;;;;;;5129746;27;20072;-58
2024/03/22 02:11:49;;;;;;;31.65;6.22;;;27.20;43.40;;;;;;5116056;27;20449;-55
2024/03/22 02:14:16;;;;;;;28.35;5.82;;;27.20;43.70;;;;;;5100283;27;20068;-54
2024/03/22 02:16:42;;;;;;;35.03;6.30;;;27.00;43.90;;;;;;5116050;27;20130;-55
2024/03/22 02:19:09;;;;;;;27.60;5.40;;;26.90;44.20;;;;;;5111597;27;20099;-56
2024/03/22 02:21:36;;;;;;;28.88;7.35;;;26.90;44.70;;;;;;5106311;27;20065;-58
2024/03/22 02:24:02;;;;;;;31.45;7.70;;;26.80;44.90;;;;;;5119242;27;20155;-55
2024/03/22 02:26:29;;;;;;;26.70;5.90;;;26.70;45.10;;;;;;5110515;27;20101;-57
2024/03/22 02:28:55;;;;;;;23.63;5.18;;;26.70;45.60;;;;;;5114788;27;20461;-61
2024/03/22 02:31:22;;;;;;;26.33;5.30;;;26.60;46.40;;;;;;5113672;27;20065;-59
2024/03/22 02:33:48;;;;;;;23.63;4.03;;;26.50;47.30;;;;;;5116834;27;20068;-60
2024/03/22 02:36:15;;;;;;;15.82;3.63;;;26.40;47.90;;;;;;5108900;27;20068;-57
2024/03/22 02:38:41;;;;;;;28.00;3.67;;;26.30;48.20;;;;;;5098165;28;20591;-54
2024/03/22 02:41:08;;;;;;;20.65;3.83;;;26.20;48.70;;;;;;5105644;28;20079;-55
2024/03/22 02:43:34;;;;;;;13.20;3.63;;;26.10;49.00;;;;;;5112438;28;20075;-58
2024/03/22 02:46:01;;;;;;;18.40;3.05;;;26.00;49.20;;;;;;5112394;28;20064;-53
2024/03/22 02:48:28;;;;;;;16.65;2.75;;;25.90;49.50;;;;;;5114210;28;20060;-53
2024/03/22 02:50:56;;;;;;;10.50;2.83;;;25.80;49.70;;;;;;5112590;27;20076;-55
2024/03/22 02:53:23;;;;;;;17.92;2.88;;;25.80;50.10;;;;;;5108499;27;20577;-53
2024/03/22 02:55:49;;;;;;;12.32;2.72;;;25.70;50.30;;;;;;5108507;27;20379;-56
2024/03/22 02:58:20;;;;;;;19.75;3.00;;;25.70;50.40;;;;;;5106598;27;20099;-53
2024/03/22 03:00:47;;;;;;;11.63;2.78;;;25.60;50.30;;;;;;5114284;27;20162;-51
2024/03/22 03:03:13;;;;;;;20.48;2.70;;;25.50;50.30;;;;;;5105802;27;20433;-54
2024/03/22 03:05:41;;;;;;;17.67;2.22;;;25.50;50.40;;;;;;5114223;27;20072;-48
2024/03/22 03:08:07;;;;;;;20.52;2.58;;;25.40;50.30;;;;;;5110657;27;21197;-52
2024/03/22 03:10:34;;;;;;;15.57;2.50;;;25.30;50.60;;;;;;5112463;27;20072;-55
2024/03/22 03:13:00;;;;;;;16.15;3.05;;;25.20;50.70;;;;;;5116212;27;20072;-55
2024/03/22 03:15:27;;;;;;;24.58;3.28;;;25.20;50.70;;;;;;5105062;27;20079;-54
2024/03/22 03:17:53;;;;;;;16.35;4.18;;;25.10;50.70;;;;;;5104087;27;20537;-55
2024/03/22 03:20:19;;;;;;;22.27;3.03;;;25.00;50.90;;;;;;5108800;27;20077;-49
2024/03/22 03:22:46;;;;;;;14.20;2.47;;;25.00;50.90;;;;;;5116194;27;20154;-56
2024/03/22 03:25:13;;;;;;;14.95;2.35;;;25.00;51.00;;;;;;5111070;27;20078;-52
2024/03/22 03:27:39;;;;;;;16.55;2.17;;;25.00;50.60;;;;;;5102871;27;20568;-55
2024/03/22 03:30:06;;;;;;;16.17;2.47;;;24.90;50.40;;;;;;5104011;27;20136;-59
2024/03/22 03:32:33;;;;;;;22.52;2.55;;;24.90;50.20;;;;;;5101089;27;20104;-52
2024/03/22 03:34:59;;;;;;;17.38;3.10;;;24.90;49.70;;;;;;5117398;27;20212;-52
2024/03/22 03:37:26;;;;;;;18.45;2.20;;;24.90;49.90;;;;;;5112240;27;20529;-52
2024/03/22 03:39:52;;;;;;;24.52;2.78;;;24.90;50.10;;;;;;5121272;27;20072;-54
2024/03/22 03:42:19;;;;;;;15.65;1.98;;;24.90;50.00;;;;;;5104804;27;20403;-53
2024/03/22 03:44:45;;;;;;;15.25;1.92;;;24.90;49.70;;;;;;5115187;27;20481;-58
2024/03/22 03:47:12;;;;;;;12.95;2.45;;;24.80;49.70;;;;;;5103375;27;20246;-55
2024/03/22 03:49:38;;;;;;;11.90;2.33;;;24.70;49.90;;;;;;5101621;27;20167;-52
2024/03/22 03:52:05;;;;;;;16.50;2.28;;;24.80;49.10;;;;;;5105056;27;20064;-55
2024/03/22 03:54:32;;;;;;;7.95;2.08;;;24.80;49.30;;;;;;5114725;27;20072;-52
2024/03/22 03:56:58;;;;;;;12.40;2.20;;;24.70;49.30;;;;;;5110961;27;20441;-54
2024/03/22 03:59:25;;;;;;;9.65;2.53;;;24.70;49.30;;;;;;5100807;27;20161;-54
2024/03/22 04:01:51;;;;;;;10.48;2.25;;;24.70;49.20;;;;;;5111862;27;20162;-51
2024/03/22 04:04:18;;;;;;;9.73;2.65;;;24.70;49.30;;;;;;5112391;27;20076;-50
2024/03/22 04:06:45;;;;;;;22.30;2.30;;;24.70;49.50;;;;;;5114032;27;20151;-54
2024/03/22 04:09:11;;;;;;;5.85;1.88;;;24.60;49.90;;;;;;5117901;27;20573;-52
2024/03/22 04:11:38;;;;;;;10.10;2.20;;;24.60;50.20;;;;;;5114675;27;20068;-57
2024/03/22 04:14:05;;;;;;;17.92;2.28;;;24.50;50.40;;;;;;5116521;27;20091;-55
2024/03/22 04:16:32;;;;;;;13.15;2.33;;;24.50;50.50;;;;;;5114717;27;20481;-53
2024/03/22 04:18:58;;;;;;;13.75;2.17;;;24.40;50.70;;;;;;5111973;27;20096;-55
2024/03/22 04:21:25;;;;;;;9.93;2.03;;;24.30;51.20;;;;;;5108740;27;20484;-52
2024/03/22 04:23:51;;;;;;;9.30;2.30;;;24.20;51.80;;;;;;5105115;27;20208;-50
2024/03/22 04:26:18;;;;;;;10.80;2.80;;;24.00;51.60;;;;;;5107362;27;20079;-59
2024/03/22 04:28:44;;;;;;;12.98;2.33;;;24.00;51.80;;;;;;5103857;27;20084;-54
2024/03/22 04:31:11;;;;;;;25.52;3.65;;;23.90;52.20;;;;;;5106970;27;20165;-53
2024/03/22 04:33:38;;;;;;;11.77;2.92;;;23.90;51.90;;;;;;5101882;28;20517;-55
2024/03/22 04:36:05;;;;;;;11.25;3.40;;;23.90;52.60;;;;;;5105228;28;20552;-54
2024/03/22 04:38:32;;;;;;;19.50;3.90;;;23.80;52.80;;;;;;5101078;28;20191;-60
2024/03/22 04:40:59;;;;;;;15.27;3.38;;;23.70;52.80;;;;;;5103791;28;20533;-54
2024/03/22 04:43:26;;;;;;;18.50;2.97;;;23.60;53.70;;;;;;5113364;27;20075;-56
2024/03/22 04:45:53;;;;;;;20.58;3.25;;;23.40;53.80;;;;;;5106096;28;20534;-55
2024/03/22 04:48:23;;;;;;;22.10;3.60;;;23.30;54.10;;;;;;5095345;28;20499;-54
2024/03/22 04:50:51;;;;;;;12.35;3.67;;;23.30;54.40;;;;;;5109917;28;20184;-53
2024/03/22 04:53:21;;;;;;;20.10;4.43;;;23.20;54.50;;;;;;5108228;28;20064;-51
2024/03/22 04:55:48;;;;;;;21.08;4.28;;;23.20;54.60;;;;;;5105884;28;20552;-50
2024/03/22 04:58:23;;;;;;;18.50;4.03;;;23.10;54.30;;;;;;5093085;28;20088;-54
2024/03/22 05:00:55;;;;;;;23.15;7.05;;;23.10;55.40;;;;;;5104247;28;20159;-52
2024/03/22 05:03:22;;;;;;;22.80;7.93;;;23.00;55.10;;;;;;5101402;28;20102;-52
2024/03/22 05:05:50;;;;;;;29.25;7.63;;;22.90;55.50;;;;;;5108399;28;20069;-52
2024/03/22 05:08:17;;;;;;;22.45;5.95;;;22.90;55.50;;;;;;5092364;28;20159;-52
2024/03/22 05:10:43;;;;;;;23.88;5.35;;;22.80;55.90;;;;;;5104953;28;20162;-55
2024/03/22 05:13:10;;;;;;;16.27;6.05;;;22.80;55.80;;;;;;5107988;28;20077;-54
2024/03/22 05:15:36;;;;;;;21.45;5.50;;;22.80;56.00;;;;;;5107942;28;20121;-49
2024/03/22 05:18:03;;;;;;;29.13;5.70;;;22.80;56.40;;;;;;5105432;28;20173;-53
2024/03/22 05:20:30;;;;;;;24.55;5.32;;;22.70;56.70;;;;;;5111995;28;20072;-53
2024/03/22 05:22:56;;;;;;;19.58;5.22;;;22.60;57.20;;;;;;5096691;28;20516;-54
2024/03/22 05:25:22;;;;;;;23.27;5.82;;;22.50;57.20;;;;;;5102864;28;20079;-50
2024/03/22 05:27:49;;;;;;;20.83;4.93;;;22.40;57.60;;;;;;5102271;28;20195;-51
2024/03/22 05:30:15;;;;;;;21.40;4.65;;;22.40;57.90;;;;;;5109268;28;20149;-51
2024/03/22 05:32:42;;;;;;;19.90;4.75;;;22.40;57.90;;;;;;5095547;28;20421;-52
2024/03/22 05:35:09;;;;;;;23.55;5.20;;;22.20;58.10;;;;;;5106775;28;20510;-57
2024/03/22 05:37:35;;;;;;;30.05;6.45;;;22.20;58.10;;;;;;5093826;28;20422;-59
2024/03/22 05:40:06;;;;;;;25.73;6.95;;;22.20;58.60;;;;;;5110105;28;20072;-56
2024/03/22 05:42:32;;;;;;;30.60;7.50;;;22.20;58.40;;;;;;5111952;28;20159;-57
2024/03/22 05:44:59;;;;;;;35.83;6.90;;;22.20;58.10;;;;;;5103444;28;20064;-57
2024/03/22 05:47:26;;;;;;;34.15;7.25;;;22.20;58.30;;;;;;5097540;28;20071;-57
2024/03/22 05:49:52;;;;;;;36.72;7.28;;;22.20;58.40;;;;;;5109845;28;20111;-56
2024/03/22 05:52:19;;;;;;;33.50;6.72;;;22.20;58.60;;;;;;5102757;28;20072;-57
2024/03/22 05:54:46;;;;;;;20.77;6.13;;;22.20;58.90;;;;;;5112263;28;20068;-56
2024/03/22 05:57:12;;;;;;;29.88;5.80;;;22.10;60.30;;;;;;5107849;28;20072;-55
2024/03/22 05:59:39;;;;;;;24.58;6.57;;;22.00;59.90;;;;;;5109499;28;20099;-56
2024/03/22 06:02:05;;;;;;;38.70;6.55;;;21.90;60.60;;;;;;5111738;28;20064;-56
2024/03/22 06:04:32;;;;;;;31.92;6.28;;;21.80;60.50;;;;;;5108914;28;20072;-56
2024/03/22 06:06:59;;;;;;;31.38;5.68;;;21.70;60.70;;;;;;5099132;28;20068;-56
2024/03/22 06:09:45;;;;;;;51.38;21.73;;;21.60;61.30;;;;;;5096196;28;20072;-57
2024/03/22 06:12:18;;;;;;;22.55;6.65;;;21.60;61.30;;;;;;5112031;28;20064;-57
2024/03/22 06:14:46;;;;;;;29.17;8.40;;;21.50;63.00;;;;;;5113280;28;20510;-57
2024/03/22 06:17:13;;;;;;;35.83;10.65;;;21.50;62.00;;;;;;5110457;28;20171;-55
2024/03/22 06:19:40;;;;;;;35.85;10.90;;;21.40;62.20;;;;;;5096989;28;20103;-54
2024/03/22 06:22:06;;;;;;;38.85;10.15;;;21.40;63.00;;;;;;5112785;28;20511;-55
2024/03/22 06:24:33;;;;;;;38.00;10.35;;;21.30;62.40;;;;;;5112117;28;20075;-56
2024/03/22 06:27:00;;;;;;;37.35;10.00;;;21.30;62.70;;;;;;5099563;28;20069;-56
2024/03/22 06:29:27;;;;;;;35.20;7.40;;;21.30;64.70;;;;;;5098928;28;20104;-56
2024/03/22 06:31:53;;;;;;;42.75;9.05;;;21.20;64.00;;;;;;5110403;28;20074;-55
2024/03/22 06:34:20;;;;;;;35.25;7.05;;;21.10;64.70;;;;;;5110826;28;20099;-56
2024/03/22 06:36:47;;;;;;;32.75;7.53;;;21.00;64.90;;;;;;5111615;28;20076;-56
2024/03/22 06:39:14;;;;;;;40.03;8.43;;;20.90;64.30;;;;;;5110819;28;20161;-57
2024/03/22 06:41:41;;;;;;;35.67;7.75;;;20.90;65.40;;;;;;5100453;28;20514;-57
2024/03/22 06:44:09;;;;;;;29.40;6.82;;;20.90;64.80;;;;;;5095529;28;20167;-57
2024/03/22 06:46:35;;;;;;;43.22;7.63;;;20.90;65.30;;;;;;5101959;28;20072;-54
2024/03/22 06:49:02;;;;;;;38.47;8.15;;;20.80;66.30;;;;;;5105560;28;20068;-58
2024/03/22 06:51:28;;;;;;;38.13;8.70;;;20.80;65.80;;;;;;5111502;28;20068;-57
2024/03/22 06:53:54;;;;;;;36.90;8.68;;;20.70;65.60;;;;;;5109480;28;20789;-56
2024/03/22 06:56:21;;;;;;;53.05;9.85;;;20.70;65.80;;;;;;5109832;28;20099;-56
2024/03/22 06:58:47;;;;;;;43.33;9.30;;;20.60;66.40;;;;;;5106170;28;20100;-57
2024/03/22 07:01:14;;;;;;;38.60;9.23;;;20.60;66.20;;;;;;5108664;28;20470;-56
2024/03/22 07:03:40;;;;;;;34.92;10.27;;;20.60;66.30;;;;;;5109742;28;20071;-57
2024/03/22 07:06:09;;;;;;;35.55;9.32;;;20.60;66.50;;;;;;5110546;28;20072;-57
2024/03/22 07:08:35;;;;;;;31.05;10.23;;;20.60;66.60;;;;;;5097132;28;20530;-57
2024/03/22 07:11:06;;;;;;;34.40;9.35;;;20.60;66.50;;;;;;5089855;28;20076;-55
2024/03/22 07:13:32;;;;;;;42.78;10.15;;;20.50;66.90;;;;;;5110287;28;20589;-57
2024/03/22 07:15:59;;;;;;;33.25;10.38;;;20.50;67.00;;;;;;5110449;28;20202;-56
2024/03/22 07:18:26;;;;;;;33.53;10.05;;;20.50;67.10;;;;;;5110354;28;20450;-57
2024/03/22 07:20:52;;;;;;;27.70;10.25;;;20.50;67.70;;;;;;5109577;28;20566;-57
2024/03/22 07:23:19;;;;;;;43.67;10.50;;;20.50;67.60;;;;;;5096627;28;20422;-52
2024/03/22 07:25:48;;;;;;;43.00;10.18;;;20.50;67.90;;;;;;5107960;28;20079;-51
2024/03/22 07:28:15;;;;;;;32.55;10.05;;;20.80;67.40;;;;;;5108303;28;20080;-53
2024/03/22 07:30:42;;;;;;;27.25;12.35;;;20.80;67.30;;;;;;5111879;28;20108;-52
2024/03/22 07:33:16;;;;;;;36.55;10.05;;;20.90;67.90;;;;;;5112552;28;20536;-54
2024/03/22 07:35:42;;;;;;;33.70;9.10;;;20.90;66.70;;;;;;5113212;28;20081;-50
2024/03/22 07:38:09;;;;;;;52.63;23.90;;;21.00;65.90;;;;;;5113074;28;20114;-51
2024/03/22 07:40:36;;;;;;;50.10;22.02;;;21.00;64.60;;;;;;5113652;28;20171;-50
2024/03/22 07:43:05;;;;;;;55.25;24.15;;;21.10;65.10;;;;;;5092449;28;20421;-50
2024/03/22 07:45:34;;;;;;;48.00;23.52;;;21.00;65.30;;;;;;5111070;28;20068;-50
2024/03/22 07:48:01;;;;;;;62.08;24.65;;;21.00;65.50;;;;;;5113124;28;20528;-54
2024/03/22 07:50:28;;;;;;;65.43;24.58;;;21.00;65.90;;;;;;5108645;28;20103;-55
2024/03/22 07:52:54;;;;;;;60.17;25.27;;;20.90;66.10;;;;;;5092584;28;20064;-52
2024/03/22 07:55:22;;;;;;;33.55;10.00;;;20.90;66.40;;;;;;5090969;28;20071;-52
2024/03/22 07:57:48;;;;;;;33.33;12.38;;;20.80;67.40;;;;;;5110941;28;20072;-54
2024/03/22 08:00:15;;;;;;;45.03;17.58;;;20.70;67.30;;;;;;5109021;28;20071;-54
2024/03/22 08:02:42;;;;;;;53.58;17.38;;;20.70;67.40;;;;;;5112692;28;20080;-53
2024/03/22 08:05:09;;;;;;;41.83;12.57;;;20.70;67.00;;;;;;5112725;28;20092;-54
2024/03/22 08:07:35;;;;;;;33.05;10.18;;;20.80;66.80;;;;;;5110407;28;20076;-52
2024/03/22 08:10:02;;;;;;;30.20;9.00;;;20.70;67.10;;;;;;5112535;28;20112;-52
2024/03/22 08:12:29;;;;;;;26.27;7.65;;;20.70;67.60;;;;;;5112671;28;20075;-53
2024/03/22 08:14:55;;;;;;;20.25;6.68;;;20.60;68.10;;;;;;5110750;28;20060;-50
2024/03/22 08:17:22;;;;;;;25.50;7.32;;;20.60;68.90;;;;;;5109547;28;20143;-48
2024/03/22 08:19:48;;;;;;;22.38;5.90;;;20.60;68.80;;;;;;5099685;28;20152;-53
2024/03/22 08:22:15;;;;;;;21.67;6.07;;;20.60;68.80;;;;;;5100370;28;20071;-53
2024/03/22 08:24:41;;;;;;;16.25;5.50;;;20.60;69.00;;;;;;5101828;28;20068;-50
2024/03/22 08:27:08;;;;;;;22.42;5.72;;;20.60;69.10;;;;;;5105477;28;20201;-53
2024/03/22 08:29:34;;;;;;;11.90;5.10;;;20.50;70.00;;;;;;5103392;28;20108;-51
2024/03/22 08:32:04;;;;;;;17.10;5.05;;;20.40;70.90;;;;;;5104602;28;20118;-53
2024/03/22 08:34:34;;;;;;;18.13;4.65;;;20.30;71.30;;;;;;5093665;28;20553;-56
2024/03/22 08:37:03;;;;;;;15.43;5.13;;;20.30;71.80;;;;;;5103561;28;20075;-51
2024/03/22 08:39:30;;;;;;;20.80;7.30;;;20.30;71.90;;;;;;5107324;28;20107;-53
2024/03/22 08:41:57;;;;;;;17.20;7.82;;;20.30;71.70;;;;;;5106318;28;20068;-52
2024/03/22 08:44:23;;;;;;;19.83;6.13;;;20.30;72.20;;;;;;5108407;28;20068;-51
2024/03/22 08:46:50;;;;;;;20.15;7.32;;;20.20;73.20;;;;;;5100669;28;20100;-53
2024/03/22 08:49:19;;;;;;;20.52;5.45;;;20.20;73.40;;;;;;5107216;28;20573;-52
2024/03/22 08:51:46;;;;;;;16.38;5.95;;;20.10;74.10;;;;;;5107689;28;20105;-52
2024/03/22 08:54:13;;;;;;;14.95;5.72;;;20.00;74.40;;;;;;5097263;28;20234;-50
2024/03/22 08:56:39;;;;;;;17.48;6.63;;;20.00;74.50;;;;;;5107346;28;20072;-53
2024/03/22 08:59:05;;;;;;;15.82;5.75;;;20.00;75.20;;;;;;5091935;28;20102;-54
2024/03/22 09:01:32;;;;;;;16.65;4.82;;;20.00;74.90;;;;;;5107463;28;20088;-50
2024/03/22 09:03:59;;;;;;;15.02;5.05;;;20.00;75.20;;;;;;5107434;28;20080;-54
2024/03/22 09:06:25;;;;;;;15.82;4.70;;;19.90;75.50;;;;;;5107098;28;20079;-51
2024/03/22 09:08:52;;;;;;;13.00;4.60;;;19.90;75.70;;;;;;5095827;28;20147;-48
2024/03/22 09:11:18;;;;;;;14.38;4.90;;;19.80;76.60;;;;;;5106304;28;20116;-51
2024/03/22 09:13:49;;;;;;;18.33;4.43;;;19.80;76.50;;;;;;5101199;28;20506;-51
2024/03/22 09:16:16;;;;;;;15.45;3.80;;;19.70;76.70;;;;;;5107640;28;20067;-52
2024/03/22 09:18:42;;;;;;;15.85;4.30;;;19.60;77.50;;;;;;5106191;28;20096;-54
2024/03/22 09:21:10;;;;;;;13.88;4.40;;;19.40;78.10;;;;;;5106784;28;20114;-50
2024/03/22 09:23:37;;;;;;;14.73;4.25;;;19.40;79.00;;;;;;5107497;28;20522;-52
2024/03/22 09:26:03;;;;;;;14.73;4.63;;;19.40;79.00;;;;;;5106733;28;20072;-52
2024/03/22 09:28:30;;;;;;;14.70;4.28;;;19.40;79.20;;;;;;5106387;28;20159;-49
2024/03/22 09:30:56;;;;;;;17.35;4.53;;;19.40;79.50;;;;;;5105427;28;20104;-51
2024/03/22 09:33:22;;;;;;;15.77;4.30;;;19.50;79.60;;;;;;5106829;28;20482;-54
2024/03/22 09:35:49;;;;;;;18.40;4.18;;;19.50;79.80;;;;;;5105701;28;20158;-50
2024/03/22 09:38:16;;;;;;;19.42;5.45;;;19.50;80.20;;;;;;5096239;28;20096;-53
2024/03/22 09:40:42;;;;;;;16.88;4.88;;;19.50;80.70;;;;;;5097464;28;20069;-58
2024/03/22 09:43:15;;;;;;;20.58;5.53;;;19.50;80.80;;;;;;5102781;28;20088;-49
2024/03/22 09:45:44;;;;;;;24.58;5.35;;;19.30;81.50;;;;;;5098462;28;20159;-50
2024/03/22 09:48:10;;;;;;;18.05;5.55;;;19.10;82.30;;;;;;5096201;28;20068;-54
2024/03/22 09:50:37;;;;;;;20.33;5.50;;;19.10;83.20;;;;;;5101502;28;20525;-52
2024/03/22 09:53:05;;;;;;;22.90;4.88;;;19.00;84.10;;;;;;5106311;28;20068;-50
2024/03/22 09:55:33;;;;;;;12.85;4.60;;;19.00;84.20;;;;;;5100157;28;20076;-52
2024/03/22 09:58:00;;;;;;;19.88;5.60;;;18.90;84.50;;;;;;5105499;28;20088;-53
2024/03/22 10:00:26;;;;;;;17.58;4.88;;;19.00;85.00;;;;;;5098824;28;20069;-53
2024/03/22 10:02:53;;;;;;;19.55;5.22;;;18.90;85.60;;;;;;5101462;28;20084;-52
2024/03/22 10:05:20;;;;;;;15.38;4.75;;;18.80;86.00;;;;;;5103275;28;20087;-53
2024/03/22 10:07:47;;;;;;;14.00;5.03;;;19.00;85.70;;;;;;5100260;27;20096;-52
2024/03/22 10:10:15;;;;;;;18.40;5.07;;;18.90;86.30;;;;;;5102137;28;20425;-56
2024/03/22 10:12:42;;;;;;;12.27;5.03;;;18.80;87.00;;;;;;5104305;28;20118;-51
2024/03/22 10:15:08;;;;;;;14.95;5.30;;;18.80;87.00;;;;;;5101979;28;20175;-50
2024/03/22 10:17:36;;;;;;;18.38;5.32;;;18.70;87.90;;;;;;5101101;28;20452;-52
2024/03/22 10:20:04;;;;;;;20.92;5.72;;;18.60;88.30;;;;;;5102320;28;20134;-51
2024/03/22 10:22:30;;;;;;;21.15;5.47;;;18.60;89.20;;;;;;5104528;28;20067;-53
2024/03/22 10:25:00;;;;;;;19.15;4.90;;;18.60;89.30;;;;;;5098950;28;20394;-54
2024/03/22 10:27:29;;;;;;;21.67;5.53;;;18.50;89.70;;;;;;5103107;28;20119;-55
2024/03/22 10:29:56;;;;;;;18.30;4.85;;;18.50;90.00;;;;;;5099485;28;20108;-51
2024/03/22 10:32:23;;;;;;;17.23;4.90;;;18.40;90.20;;;;;;5110432;27;20080;-52
2024/03/22 10:34:51;;;;;;;16.55;5.20;;;18.40;90.40;;;;;;5107071;28;20072;-51
2024/03/22 10:37:17;;;;;;;17.85;5.70;;;18.30;90.70;;;;;;5104766;28;20076;-51
2024/03/22 10:39:45;;;;;;;16.35;5.57;;;18.30;91.00;;;;;;5106540;28;20107;-57
2024/03/22 10:42:12;;;;;;;14.80;6.25;;;18.30;91.00;;;;;;5104786;28;20464;-54
2024/03/22 10:44:39;;;;;;;14.75;5.10;;;18.20;91.10;;;;;;5107549;28;20121;-53
2024/03/22 10:47:09;;;;;;;20.83;5.53;;;18.20;91.50;;;;;;5105159;28;20087;-51
2024/03/22 10:49:38;;;;;;;20.73;5.57;;;18.10;91.60;;;;;;5098933;28;20179;-53
2024/03/22 10:52:06;;;;;;;25.65;10.38;;;18.10;91.90;;;;;;5107401;28;20163;-50
2024/03/22 10:54:38;;;;;;;24.30;8.98;;;18.00;92.10;;;;;;5103883;28;20514;-54
2024/03/22 10:57:07;;;;;;;18.90;8.93;;;18.00;92.40;;;;;;5107549;28;20107;-51
2024/03/22 10:59:37;;;;;;;23.30;8.20;;;18.00;92.00;;;;;;5108541;28;20146;-53
2024/03/22 11:02:06;;;;;;;16.27;6.40;;;18.00;92.10;;;;;;5107541;28;20079;-51
2024/03/22 11:04:34;;;;;;;21.17;6.13;;;18.00;92.10;;;;;;5110254;28;20091;-54
2024/03/22 11:07:00;;;;;;;14.73;5.68;;;17.90;92.40;;;;;;5103545;28;20078;-53
2024/03/22 11:09:28;;;;;;;31.27;7.60;;;17.80;93.10;;;;;;5105109;28;20072;-54
2024/03/22 11:11:56;;;;;;;25.35;7.22;;;17.90;92.80;;;;;;5106874;28;20092;-51
2024/03/22 11:14:26;;;;;;;36.03;20.55;;;17.80;92.90;;;;;;5109616;28;20068;-53
2024/03/22 11:16:55;;;;;;;18.83;5.93;;;17.80;93.00;;;;;;5108381;28;20096;-49
2024/03/22 11:19:21;;;;;;;13.07;5.95;;;17.70;93.40;;;;;;5109622;27;20107;-51
2024/03/22 11:21:48;;;;;;;21.25;8.70;;;17.70;93.50;;;;;;5094592;28;20126;-52
2024/03/22 11:24:15;;;;;;;22.15;10.13;;;17.70;93.60;;;;;;5108700;28;20065;-53
2024/03/22 11:26:44;;;;;;;27.98;11.93;;;17.70;93.70;;;;;;5108967;28;20072;-52
2024/03/22 11:29:10;;;;;;;43.92;12.57;;;17.70;93.90;;;;;;5108397;28;20119;-50
2024/03/22 11:31:37;;;;;;;27.77;10.52;;;17.60;94.30;;;;;;5101178;28;20072;-53
2024/03/22 11:34:04;;;;;;;29.42;10.00;;;17.50;94.10;;;;;;5106341;28;20574;-54
2024/03/22 11:36:30;;;;;;;25.77;8.82;;;17.50;94.50;;;;;;5100291;28;20533;-51
2024/03/22 11:38:57;;;;;;;27.40;7.07;;;17.50;94.20;;;;;;5105863;28;20121;-51
2024/03/22 11:41:28;;;;;;;18.70;6.45;;;17.50;94.50;;;;;;5105048;28;20562;-54
2024/03/22 11:43:57;;;;;;;29.63;9.75;;;17.40;94.40;;;;;;5098902;28;20067;-50
2024/03/22 11:46:25;;;;;;;39.58;8.80;;;17.40;94.80;;;;;;5107280;28;20068;-51
2024/03/22 11:48:54;;;;;;;24.33;7.75;;;17.30;95.10;;;;;;5109963;28;20068;-53
2024/03/22 11:51:21;;;;;;;22.23;7.68;;;17.30;95.30;;;;;;5104556;28;20068;-53
2024/03/22 11:53:52;;;;;;;23.35;6.80;;;17.10;95.50;;;;;;5108183;28;20064;-51
2024/03/22 11:56:20;;;;;;;25.35;6.90;;;17.10;96.00;;;;;;5104793;28;20487;-50
2024/03/22 11:58:48;;;;;;;19.23;6.70;;;17.10;96.10;;;;;;5108215;28;20180;-49
2024/03/22 12:01:15;;;;;;;22.60;6.20;;;17.10;96.40;;;;;;5097345;28;20403;-54
2024/03/22 12:03:44;;;;;;;19.33;6.60;;;17.20;96.40;;;;;;5106472;28;20101;-54
2024/03/22 12:06:11;;;;;;;25.17;6.43;;;17.10;96.30;;;;;;5107682;28;20150;-53
2024/03/22 12:08:40;;;;;;;16.92;6.07;;;17.10;96.70;;;;;;5108342;28;20072;-50
2024/03/22 12:11:11;;;;;;;20.20;6.15;;;17.10;96.90;;;;;;5107127;28;20068;-54
2024/03/22 12:13:38;;;;;;;20.17;6.30;;;17.10;97.10;;;;;;5100273;28;20079;-51
2024/03/22 12:16:05;;;;;;;17.75;6.47;;;17.10;97.40;;;;;;5104593;28;20068;-51
2024/03/22 12:18:32;;;;;;;18.95;6.15;;;17.10;97.50;;;;;;5107097;28;20104;-51
2024/03/22 12:20:59;;;;;;;23.30;7.30;;;17.10;97.60;;;;;;5108432;28;20099;-50
2024/03/22 12:23:25;;;;;;;20.48;6.20;;;17.00;97.80;;;;;;5100557;28;20110;-50
2024/03/22 12:25:52;;;;;;;20.42;6.40;;;17.00;98.10;;;;;;5105649;28;20186;-51
2024/03/22 12:28:20;;;;;;;22.20;7.15;;;16.90;98.40;;;;;;5109647;28;20116;-50
2024/03/22 12:30:48;;;;;;;21.02;6.45;;;16.90;98.50;;;;;;5094563;28;20108;-50
2024/03/22 12:33:14;;;;;;;21.92;7.50;;;16.90;98.60;;;;;;5103225;28;20154;-49
2024/03/22 12:35:41;;;;;;;20.40;6.82;;;16.80;98.60;;;;;;5103203;28;20069;-52